createdAt,value
2023-03-04T00:02:19.377Z,2.97
2023-03-04T00:07:20.664Z,2.80
2023-03-04T00:12:21.934Z,2.97
2023-03-04T00:17:23.270Z,3.00
2023-03-04T00:22:24.560Z,2.77
2023-03-04T00:27:25.865Z,2.90
2023-03-04T00:32:27.169Z,3.20
2023-03-04T00:37:28.478Z,3.07
2023-03-04T00:42:29.789Z,3.43
2023-03-04T00:47:31.089Z,3.00
2023-03-04T00:52:32.412Z,3.10
2023-03-04T00:57:33.683Z,3.40
2023-03-04T01:02:35.145Z,3.10
2023-03-04T01:07:36.492Z,3.00
2023-03-04T01:12:37.820Z,3.07
2023-03-04T01:17:39.172Z,3.17
2023-03-04T01:22:40.596Z,3.07
2023-03-04T01:27:41.877Z,3.03
2023-03-04T01:32:43.190Z,2.93
2023-03-04T01:37:44.510Z,3.10
2023-03-04T01:42:45.810Z,2.90
2023-03-04T01:47:47.116Z,3.07
2023-03-04T01:52:48.418Z,3.07
2023-03-04T01:57:49.726Z,3.30
2023-03-04T02:02:51.033Z,3.70
2023-03-04T02:07:52.292Z,2.73
2023-03-04T02:12:53.622Z,3.03
2023-03-04T02:17:54.915Z,2.93
2023-03-04T02:22:56.236Z,2.77
2023-03-04T02:27:57.551Z,3.20
2023-03-04T02:32:58.896Z,3.57
2023-03-04T02:38:00.157Z,3.67
2023-03-04T02:43:01.507Z,2.70
2023-03-04T02:48:02.797Z,3.10
2023-03-04T02:53:04.247Z,3.00
2023-03-04T02:58:05.807Z,3.27
2023-03-04T03:03:07.162Z,3.13
2023-03-04T03:08:08.473Z,3.20
2023-03-04T03:13:09.786Z,3.50
2023-03-04T03:18:11.059Z,3.40
2023-03-04T03:23:12.354Z,3.43
2023-03-04T03:28:13.673Z,3.60
2023-03-04T03:33:15.100Z,3.50
2023-03-04T03:38:16.352Z,3.70
2023-03-04T03:43:17.660Z,3.20
2023-03-04T03:48:19.030Z,3.30
2023-03-04T03:53:20.390Z,3.40
2023-03-04T03:58:21.657Z,3.70
2023-03-04T04:03:22.913Z,3.80
2023-03-04T04:08:24.230Z,4.00
2023-03-04T04:13:25.543Z,4.03
2023-03-04T04:18:26.806Z,3.77
2023-03-04T04:23:28.169Z,4.00
2023-03-04T04:28:29.513Z,3.97
2023-03-04T04:33:30.797Z,3.80
2023-03-04T04:38:32.089Z,4.00
2023-03-04T04:43:33.339Z,4.30
2023-03-04T04:48:34.612Z,4.23
2023-03-04T04:53:35.875Z,4.37
2023-03-04T04:58:37.296Z,3.90
2023-03-04T05:03:38.645Z,4.20
2023-03-04T05:08:39.928Z,4.10
2023-03-04T05:13:41.208Z,4.17
2023-03-04T05:18:42.490Z,4.37
2023-03-04T05:23:43.794Z,4.20
2023-03-04T05:28:45.064Z,4.03
2023-03-04T05:33:46.348Z,4.33
2023-03-04T05:38:47.622Z,4.37
2023-03-04T05:43:48.967Z,4.10
2023-03-04T05:48:50.287Z,4.43
2023-03-04T05:53:51.614Z,3.90
2023-03-04T05:58:52.879Z,4.00
2023-03-04T06:03:54.160Z,4.60
2023-03-04T06:08:55.518Z,4.90
2023-03-04T06:13:56.852Z,4.57
2023-03-04T06:18:58.139Z,3.83
2023-03-04T06:23:59.428Z,3.57
2023-03-04T06:29:00.823Z,3.80
2023-03-04T06:34:02.126Z,3.67
2023-03-04T06:39:03.501Z,3.57
2023-03-04T06:44:04.807Z,3.17
2023-03-04T06:49:06.221Z,3.80
2023-03-04T06:54:07.543Z,3.70
2023-03-04T06:59:08.829Z,3.80
2023-03-04T07:04:10.098Z,4.17
2023-03-04T07:09:11.356Z,4.43
2023-03-04T07:14:12.728Z,3.80
2023-03-04T07:19:14.099Z,4.20
2023-03-04T07:24:15.379Z,4.40
2023-03-04T07:29:16.692Z,3.73
2023-03-04T07:34:18.001Z,4.13
2023-03-04T07:39:19.436Z,4.07
2023-03-04T07:44:20.809Z,4.10
2023-03-04T07:49:22.098Z,4.70
2023-03-04T07:54:23.537Z,4.87
2023-03-04T07:59:24.914Z,5.67
2023-03-04T08:04:26.550Z,5.60
2023-03-04T08:09:28.139Z,5.13
2023-03-04T08:14:29.952Z,4.95
2023-03-04T08:19:31.665Z,5.43
2023-03-04T08:24:33.761Z,5.47
2023-03-04T08:29:35.741Z,5.30
2023-03-04T08:34:37.442Z,4.40
2023-03-04T08:39:39.170Z,5.13
2023-03-04T08:44:40.803Z,4.70
2023-03-04T08:49:42.412Z,4.63
2023-03-04T08:54:43.898Z,4.80
2023-03-04T08:59:45.288Z,4.50
2023-03-04T09:04:46.749Z,4.35
2023-03-04T09:09:48.242Z,4.63
2023-03-04T09:14:58.313Z,4.50
2023-03-04T09:20:10.267Z,7.07
2023-03-04T09:25:13.229Z,7.60
2023-03-04T09:30:14.866Z,6.87
2023-03-04T09:35:16.249Z,6.30
2023-03-04T09:40:19.389Z,5.60
2023-03-04T09:45:21.834Z,5.80
2023-03-04T09:50:23.566Z,5.57
2023-03-04T09:55:24.962Z,4.87
2023-03-04T10:00:26.373Z,5.57
2023-03-04T10:05:28.556Z,4.90
2023-03-04T10:10:30.467Z,5.23
2023-03-04T10:15:32.729Z,5.80
2023-03-04T10:20:34.614Z,4.67
2023-03-04T10:25:36.366Z,5.03
2023-03-04T10:30:38.106Z,5.00
2023-03-04T10:35:40.599Z,5.10
2023-03-04T10:40:43.671Z,5.07
2023-03-04T10:45:47.814Z,5.40
2023-03-04T10:50:49.534Z,5.40
2023-03-04T10:55:50.859Z,5.97
2023-03-04T11:00:54.940Z,5.50
2023-03-04T11:05:56.655Z,5.70
2023-03-04T11:10:58.038Z,5.77
2023-03-04T11:15:59.446Z,5.50
2023-03-04T11:21:01.027Z,5.77
2023-03-04T11:26:02.453Z,11.60
2023-03-04T11:31:03.913Z,13.50
2023-03-04T11:36:05.240Z,13.67
2023-03-04T11:41:06.560Z,17.70
2023-03-04T11:46:08.087Z,18.47
2023-03-04T11:51:12.045Z,20.13
2023-03-04T11:56:14.927Z,19.00
2023-03-04T12:01:17.253Z,15.80
2023-03-04T12:06:19.346Z,13.57
2023-03-04T12:11:22.618Z,12.53
2023-03-04T12:16:24.921Z,10.40
2023-03-04T12:21:27.989Z,10.57
2023-03-04T12:31:46.298Z,9.53
2023-03-04T12:36:48.276Z,9.70
2023-03-04T12:41:50.336Z,8.63
2023-03-04T12:46:52.525Z,8.57
2023-03-04T12:51:54.594Z,8.47
2023-03-04T12:56:56.383Z,7.60
2023-03-04T13:01:58.651Z,7.30
2023-03-04T13:07:00.821Z,6.40
2023-03-04T13:12:02.834Z,6.80
2023-03-04T13:17:04.408Z,6.67
2023-03-04T13:22:06.068Z,6.30
2023-03-04T13:27:08.039Z,6.33
2023-03-04T13:32:09.911Z,6.23
2023-03-04T13:37:12.046Z,6.10
2023-03-04T13:42:14.211Z,5.97
2023-03-04T13:47:16.171Z,6.03
2023-03-04T13:52:18.048Z,5.73
2023-03-04T13:57:19.505Z,5.57
2023-03-04T14:02:20.856Z,5.40
2023-03-04T14:07:22.250Z,5.20
2023-03-04T14:12:23.570Z,5.57
2023-03-04T14:17:24.872Z,5.43
2023-03-04T14:22:26.186Z,5.63
2023-03-04T14:27:27.580Z,5.13
2023-03-04T14:32:28.947Z,5.57
2023-03-04T14:37:30.264Z,5.17
2023-03-04T14:42:31.559Z,5.50
2023-03-04T14:47:32.973Z,5.37
2023-03-04T14:52:34.444Z,5.73
2023-03-04T14:57:35.728Z,5.70
2023-03-04T15:02:37.023Z,5.20
2023-03-04T15:07:38.327Z,5.67
2023-03-04T15:12:39.634Z,5.30
2023-03-04T15:17:40.980Z,5.37
2023-03-04T15:22:42.256Z,5.30
2023-03-04T15:27:43.527Z,5.33
2023-03-04T15:32:44.784Z,5.17
2023-03-04T15:37:46.101Z,5.40
2023-03-04T15:42:47.406Z,5.80
2023-03-04T15:47:48.709Z,5.70
2023-03-04T15:52:51.187Z,5.90
2023-03-04T15:57:52.502Z,6.10
2023-03-04T16:02:53.857Z,6.00
2023-03-04T16:07:55.219Z,6.07
2023-03-04T16:12:56.504Z,6.33
2023-03-04T16:17:57.806Z,6.73
2023-03-04T16:22:59.110Z,6.80
2023-03-04T16:28:00.362Z,6.77
2023-03-04T16:33:01.647Z,6.77
2023-03-04T16:38:02.917Z,7.03
2023-03-04T16:43:04.266Z,6.90
2023-03-04T16:48:05.518Z,7.70
2023-03-04T16:53:06.748Z,7.43
2023-03-04T16:58:08.423Z,7.20
2023-03-04T17:03:09.809Z,7.30
2023-03-04T17:08:11.294Z,7.83
2023-03-04T17:13:13.419Z,7.33
2023-03-04T17:18:14.700Z,7.67
2023-03-04T17:23:16.032Z,8.43
2023-03-04T17:28:17.298Z,9.10
2023-03-04T17:33:18.602Z,10.47
2023-03-04T17:38:19.858Z,10.40
2023-03-04T17:43:21.140Z,10.50
2023-03-04T17:48:22.367Z,10.63
2023-03-04T17:53:23.614Z,14.57
2023-03-04T17:58:24.952Z,15.33
2023-03-04T18:03:27.672Z,20.83
2023-03-04T18:08:28.956Z,25.20
2023-03-04T18:13:30.241Z,27.87
2023-03-04T18:18:31.534Z,24.97
2023-03-04T18:23:32.880Z,27.27
2023-03-04T18:28:34.189Z,29.93
2023-03-04T18:33:35.543Z,29.87
2023-03-04T18:38:36.955Z,31.67
2023-03-04T18:43:38.298Z,39.53
2023-03-04T18:48:39.546Z,38.17
2023-03-04T18:53:40.913Z,37.23
2023-03-04T18:58:42.142Z,37.47
2023-03-04T19:03:43.588Z,30.93
2023-03-04T19:08:44.945Z,23.53
2023-03-04T19:13:46.262Z,22.90
2023-03-04T19:18:47.563Z,23.17
2023-03-04T19:23:48.808Z,20.50
2023-03-04T19:28:50.086Z,20.70
2023-03-04T19:33:51.388Z,19.03
2023-03-04T19:38:52.680Z,19.20
2023-03-04T19:43:53.957Z,19.90
2023-03-04T19:48:55.244Z,19.17
2023-03-04T19:53:56.520Z,19.77
2023-03-04T19:58:57.811Z,19.77
2023-03-04T20:04:00.334Z,18.27
2023-03-04T20:09:01.708Z,17.43
2023-03-04T20:14:02.978Z,17.27
2023-03-04T20:19:04.245Z,17.10
2023-03-04T20:24:05.507Z,16.73
2023-03-04T20:29:06.773Z,16.30
2023-03-04T20:34:08.093Z,16.37
2023-03-04T20:39:21.775Z,15.33
2023-03-04T20:44:29.212Z,15.37
2023-03-04T20:49:30.492Z,14.17
2023-03-04T20:54:31.764Z,14.00
2023-03-04T20:59:33.037Z,13.13
2023-03-04T21:04:34.359Z,13.77
2023-03-04T21:09:35.663Z,12.30
2023-03-04T21:14:36.938Z,12.70
2023-03-04T21:19:38.300Z,12.33
2023-03-04T21:24:39.597Z,11.63
2023-03-04T21:29:40.893Z,12.03
2023-03-04T21:34:43.223Z,12.37
2023-03-04T21:44:51.259Z,10.40
2023-03-04T21:49:53.018Z,12.03
2023-03-04T21:54:54.429Z,10.70
2023-03-04T21:59:55.794Z,10.83
2023-03-04T22:04:57.129Z,11.10
2023-03-04T22:09:58.367Z,10.93
2023-03-04T22:14:59.627Z,10.13
2023-03-04T22:20:00.889Z,10.30
2023-03-04T22:25:02.189Z,10.73
2023-03-04T22:30:03.447Z,10.50
2023-03-04T22:35:04.721Z,9.97
2023-03-04T22:40:06.066Z,9.73
2023-03-04T22:45:07.327Z,10.40
2023-03-04T22:50:08.669Z,9.00
2023-03-04T22:55:09.962Z,8.93
2023-03-04T23:00:11.233Z,9.07
2023-03-04T23:05:12.493Z,8.17
2023-03-04T23:10:13.732Z,9.10
2023-03-04T23:15:15.004Z,7.97
2023-03-04T23:20:16.285Z,8.73
2023-03-04T23:25:17.577Z,8.13
2023-03-04T23:30:18.935Z,8.60
2023-03-04T23:35:20.360Z,8.33
2023-03-04T23:40:21.674Z,8.90
2023-03-04T23:45:22.987Z,8.00
2023-03-04T23:50:24.228Z,8.33
2023-03-04T23:55:25.543Z,8.00
